logo tempoitalia

Diretta Meteo Madrid-Barajas, Spagnalunedì 31 agosto ore 06:30

Mappa
Sereno 18 °C Sereno 24 Ore: T.min 14 T.max 33
Ponente Nord Km/h 7.4 Punto di rugiada: 9 °C Umidità: 55% Visibilità: 10 Km
Il sole sorge alle: 07:40 Il sole tramonta alle: 20:48
31 Agosto 2026 06:30 tempo osservato: Sereno Sereno 18 55 1019 vento: Nord N 7.4
31 Agosto 2026 06:00 tempo osservato: Sereno Sereno 18 55 1019 vento: Nord N 11.1
31 Agosto 2026 05:30 tempo osservato: Sereno Sereno 18 55 1019 vento: Nord N 5.5
31 Agosto 2026 05:00 tempo osservato: Sereno Sereno 18 55 1019 vento: Nord N 3.7
31 Agosto 2026 04:30 tempo osservato: Sereno Sereno 19 52 1019 vento: Nord N 3.7
31 Agosto 2026 04:00 tempo osservato: Sereno Sereno 19 52 1019 vento: Nord N 5.5
31 Agosto 2026 03:30 tempo osservato: Sereno Sereno 20 49 1019 vento: Nord N 5.5
31 Agosto 2026 03:00 tempo osservato: Sereno Sereno 22 43 1019 vento: Nord N/NO 7.4
31 Agosto 2026 02:30 tempo osservato: Sereno Sereno 23 40 1019 vento: Nord N 3.7
31 Agosto 2026 02:00 tempo osservato: Sereno Sereno 22 43 1019 vento: Nord N 3.7
31 Agosto 2026 01:30 tempo osservato: Sereno Sereno 23 40 1019 vento: Nord N 3.7
31 Agosto 2026 01:00 tempo osservato: Sereno Sereno 24 38 1019 vento: Nord N 3.7
31 Agosto 2026 00:30 tempo osservato: Sereno Sereno 25 36 1018 vento: Nord N 1.8
31 Agosto 2026 00:00 tempo osservato: Sereno Sereno 25 33 1018 vento: Nord N 5.5
30 Agosto 2026 23:30 tempo osservato: Sereno Sereno 26 34 1018 vento: Nord N 3.7
30 Agosto 2026 23:00 tempo osservato: Sereno Sereno 27 32 1018 vento: Nord SO 7.4
30 Agosto 2026 22:30 tempo osservato: Sereno Sereno 28 28 1018 vento: Nord O/SO 11.1
30 Agosto 2026 22:00 tempo osservato: Sereno Sereno 29 25 1017 vento: Nord SO 14.8
30 Agosto 2026 21:30 tempo osservato: Sereno Sereno 30 22 1017 vento: Nord O/SO 18.5
30 Agosto 2026 21:00 tempo osservato: Sereno Sereno 30 22 1017 vento: Nord O/SO 20.3
30 Agosto 2026 20:30 tempo osservato: Sereno Sereno 31 19 1017 vento: Nord SO 24
30 Agosto 2026 20:00 tempo osservato: Sereno Sereno 32 18 1017 vento: Nord SO 24
30 Agosto 2026 19:30 tempo osservato: Sereno Sereno 32 19 1016 vento: Nord SO 24
30 Agosto 2026 19:00 tempo osservato: Sereno Sereno 33 17 1016 vento: Nord SO 22.2
30 Agosto 2026 18:30 tempo osservato: Sereno Sereno 33 17 1016 vento: Nord S/SO 22.2
30 Agosto 2026 18:00 tempo osservato: Sereno Sereno 33 18 1017 vento: Nord SO 20.3
30 Agosto 2026 17:30 tempo osservato: Sereno Sereno 33 18 1017 vento: Nord SO 24
30 Agosto 2026 17:00 tempo osservato: Sereno Sereno 33 18 1017 vento: Nord S/SO 22.2
30 Agosto 2026 16:30 tempo osservato: Sereno Sereno 33 19 1017 vento: Nord O/SO 18.5
30 Agosto 2026 16:00 tempo osservato: Sereno Sereno 32 21 1018 vento: Nord O/SO 18.5
30 Agosto 2026 15:30 tempo osservato: Sereno Sereno 31 23 1018 vento: Nord S/SO 22.2
30 Agosto 2026 15:00 tempo osservato: Sereno Sereno 31 23 1018 vento: Nord SO 16.7
30 Agosto 2026 14:30 tempo osservato: Sereno Sereno 30 23 1019 vento: Nord S/SO 20.3
30 Agosto 2026 14:00 tempo osservato: Sereno Sereno 30 23 1019 vento: Nord SO 13
30 Agosto 2026 13:30 tempo osservato: Sereno Sereno 29 25 1019 vento: Nord SO 16.7
30 Agosto 2026 13:00 tempo osservato: Sereno Sereno 29 25 1019 vento: Nord S 9.3
30 Agosto 2026 12:30 tempo osservato: Sereno Sereno 27 28 1019 vento: Nord S 7.4
30 Agosto 2026 12:00 tempo osservato: Sereno Sereno 26 27 1020 vento: Nord N 3.7
30 Agosto 2026 11:30 tempo osservato: Sereno Sereno 25 27 1020 vento: Nord N 3.7
30 Agosto 2026 11:00 tempo osservato: Sereno Sereno 23 31 1020 vento: Nord N 3.7
30 Agosto 2026 10:30 tempo osservato: Sereno Sereno 21 35 1020 vento: Nord N 1.8
30 Agosto 2026 10:00 tempo osservato: Sereno Sereno 20 39 1020 vento: Nord N 1.8
30 Agosto 2026 09:30 tempo osservato: Sereno Sereno 18 45 1020 vento: Nord N 3.7
30 Agosto 2026 09:00 tempo osservato: Sereno Sereno 16 47 1019 vento: Nord N 3.7
30 Agosto 2026 08:30 tempo osservato: Sereno Sereno 15 54 1019 vento: Nord N 5.5
30 Agosto 2026 08:00 tempo osservato: Sereno Sereno 14 54 1019 vento: Nord N 7.4
30 Agosto 2026 07:30 tempo osservato: Sereno Sereno 14 54 1019 vento: Nord N 1.8
30 Agosto 2026 07:00 tempo osservato: Sereno Sereno 14 54 1019 vento: Nord N 0